sensor_id;sensor_type;location;lat;lon;timestamp;P1;durP1;ratioP1;P2;durP2;ratioP2
49962;SDS011;36180;57.678;11.910;2024-01-11T00:00:39;98.13;;;8.20;;
49962;SDS011;36180;57.678;11.910;2024-01-11T00:03:06;124.05;;;10.23;;
49962;SDS011;36180;57.678;11.910;2024-01-11T00:05:35;131.90;;;10.27;;
49962;SDS011;36180;57.678;11.910;2024-01-11T00:08:02;335.58;;;13.25;;
49962;SDS011;36180;57.678;11.910;2024-01-11T00:10:29;115.93;;;10.27;;
49962;SDS011;36180;57.678;11.910;2024-01-11T00:12:56;74.70;;;9.15;;
49962;SDS011;36180;57.678;11.910;2024-01-11T00:15:23;66.88;;;8.98;;
49962;SDS011;36180;57.678;11.910;2024-01-11T00:17:50;93.50;;;9.10;;
49962;SDS011;36180;57.678;11.910;2024-01-11T00:20:17;129.45;;;10.75;;
49962;SDS011;36180;57.678;11.910;2024-01-11T00:22:46;164.93;;;11.80;;
49962;SDS011;36180;57.678;11.910;2024-01-11T00:25:13;89.00;;;13.30;;
49962;SDS011;36180;57.678;11.910;2024-01-11T00:27:41;141.82;;;13.63;;
49962;SDS011;36180;57.678;11.910;2024-01-11T00:30:08;157.80;;;12.52;;
49962;SDS011;36180;57.678;11.910;2024-01-11T00:32:35;115.25;;;9.68;;
49962;SDS011;36180;57.678;11.910;2024-01-11T00:35:02;45.38;;;8.48;;
49962;SDS011;36180;57.678;11.910;2024-01-11T00:37:29;171.88;;;10.70;;
49962;SDS011;36180;57.678;11.910;2024-01-11T00:39:57;105.93;;;9.70;;
49962;SDS011;36180;57.678;11.910;2024-01-11T00:42:24;208.05;;;12.98;;
49962;SDS011;36180;57.678;11.910;2024-01-11T00:44:51;216.45;;;12.93;;
49962;SDS011;36180;57.678;11.910;2024-01-11T00:47:18;160.65;;;12.50;;
49962;SDS011;36180;57.678;11.910;2024-01-11T00:49:45;211.93;;;13.18;;
49962;SDS011;36180;57.678;11.910;2024-01-11T00:52:12;259.33;;;13.93;;
49962;SDS011;36180;57.678;11.910;2024-01-11T00:54:39;433.63;;;17.63;;
49962;SDS011;36180;57.678;11.910;2024-01-11T00:57:08;90.72;;;10.20;;
49962;SDS011;36180;57.678;11.910;2024-01-11T00:59:35;192.40;;;12.57;;
49962;SDS011;36180;57.678;11.910;2024-01-11T01:02:02;149.43;;;11.75;;
49962;SDS011;36180;57.678;11.910;2024-01-11T01:04:29;153.05;;;11.75;;
49962;SDS011;36180;57.678;11.910;2024-01-11T01:06:56;145.93;;;11.52;;
49962;SDS011;36180;57.678;11.910;2024-01-11T01:09:23;192.65;;;11.20;;
49962;SDS011;36180;57.678;11.910;2024-01-11T01:11:50;164.07;;;10.77;;
49962;SDS011;36180;57.678;11.910;2024-01-11T01:14:19;102.40;;;9.60;;
49962;SDS011;36180;57.678;11.910;2024-01-11T01:16:45;112.20;;;9.88;;
49962;SDS011;36180;57.678;11.910;2024-01-11T01:19:13;93.07;;;9.55;;
49962;SDS011;36180;57.678;11.910;2024-01-11T01:21:39;60.35;;;7.60;;
49962;SDS011;36180;57.678;11.910;2024-01-11T01:24:06;70.72;;;7.57;;
49962;SDS011;36180;57.678;11.910;2024-01-11T01:26:35;84.57;;;8.23;;
49962;SDS011;36180;57.678;11.910;2024-01-11T01:29:01;72.13;;;8.48;;
49962;SDS011;36180;57.678;11.910;2024-01-11T01:31:30;83.70;;;7.90;;
49962;SDS011;36180;57.678;11.910;2024-01-11T01:34:02;144.38;;;8.75;;
49962;SDS011;36180;57.678;11.910;2024-01-11T01:36:29;79.05;;;6.85;;
49962;SDS011;36180;57.678;11.910;2024-01-11T01:38:56;122.13;;;7.78;;
49962;SDS011;36180;57.678;11.910;2024-01-11T01:41:23;105.20;;;7.38;;
49962;SDS011;36180;57.678;11.910;2024-01-11T01:43:50;101.50;;;8.27;;
49962;SDS011;36180;57.678;11.910;2024-01-11T01:46:19;76.10;;;7.00;;
49962;SDS011;36180;57.678;11.910;2024-01-11T01:48:50;131.65;;;8.02;;
49962;SDS011;36180;57.678;11.910;2024-01-11T01:51:17;45.78;;;6.40;;
49962;SDS011;36180;57.678;11.910;2024-01-11T01:53:44;79.22;;;7.45;;
49962;SDS011;36180;57.678;11.910;2024-01-11T01:56:11;72.68;;;7.15;;
49962;SDS011;36180;57.678;11.910;2024-01-11T01:58:39;63.22;;;6.78;;
49962;SDS011;36180;57.678;11.910;2024-01-11T02:01:07;163.02;;;9.07;;
49962;SDS011;36180;57.678;11.910;2024-01-11T02:03:34;64.43;;;7.53;;
49962;SDS011;36180;57.678;11.910;2024-01-11T02:06:03;66.35;;;8.48;;
49962;SDS011;36180;57.678;11.910;2024-01-11T02:08:31;99.03;;;8.98;;
49962;SDS011;36180;57.678;11.910;2024-01-11T02:10:59;121.30;;;8.95;;
49962;SDS011;36180;57.678;11.910;2024-01-11T02:13:26;110.50;;;9.60;;
49962;SDS011;36180;57.678;11.910;2024-01-11T02:15:53;111.65;;;9.52;;
49962;SDS011;36180;57.678;11.910;2024-01-11T02:18:20;132.50;;;10.10;;
49962;SDS011;36180;57.678;11.910;2024-01-11T02:20:47;137.80;;;8.90;;
49962;SDS011;36180;57.678;11.910;2024-01-11T02:23:16;102.28;;;9.48;;
49962;SDS011;36180;57.678;11.910;2024-01-11T02:25:46;90.20;;;8.63;;
49962;SDS011;36180;57.678;11.910;2024-01-11T02:28:12;94.78;;;9.45;;
49962;SDS011;36180;57.678;11.910;2024-01-11T02:30:39;103.28;;;9.32;;
49962;SDS011;36180;57.678;11.910;2024-01-11T02:33:08;45.90;;;8.05;;
49962;SDS011;36180;57.678;11.910;2024-01-11T02:35:35;68.13;;;8.93;;
49962;SDS011;36180;57.678;11.910;2024-01-11T02:38:03;38.78;;;8.18;;
49962;SDS011;36180;57.678;11.910;2024-01-11T02:40:31;86.53;;;9.45;;
49962;SDS011;36180;57.678;11.910;2024-01-11T02:43:01;31.48;;;7.45;;
49962;SDS011;36180;57.678;11.910;2024-01-11T02:45:34;34.47;;;7.82;;
49962;SDS011;36180;57.678;11.910;2024-01-11T02:48:01;56.83;;;8.45;;
49962;SDS011;36180;57.678;11.910;2024-01-11T02:50:28;75.63;;;9.07;;
49962;SDS011;36180;57.678;11.910;2024-01-11T02:52:55;52.90;;;9.60;;
49962;SDS011;36180;57.678;11.910;2024-01-11T02:55:22;111.63;;;10.40;;
49962;SDS011;36180;57.678;11.910;2024-01-11T02:57:49;77.93;;;9.30;;
49962;SDS011;36180;57.678;11.910;2024-01-11T03:00:17;61.38;;;9.05;;
49962;SDS011;36180;57.678;11.910;2024-01-11T03:02:44;90.68;;;9.13;;
49962;SDS011;36180;57.678;11.910;2024-01-11T03:05:11;43.22;;;7.93;;
49962;SDS011;36180;57.678;11.910;2024-01-11T03:07:39;44.47;;;7.72;;
49962;SDS011;36180;57.678;11.910;2024-01-11T03:10:06;126.43;;;10.40;;
49962;SDS011;36180;57.678;11.910;2024-01-11T03:12:33;92.57;;;9.10;;
49962;SDS011;36180;57.678;11.910;2024-01-11T03:15:00;95.40;;;8.93;;
49962;SDS011;36180;57.678;11.910;2024-01-11T03:17:29;184.98;;;11.55;;
49962;SDS011;36180;57.678;11.910;2024-01-11T03:19:56;163.25;;;11.27;;
49962;SDS011;36180;57.678;11.910;2024-01-11T03:22:23;123.35;;;11.45;;
49962;SDS011;36180;57.678;11.910;2024-01-11T03:24:50;81.80;;;10.73;;
49962;SDS011;36180;57.678;11.910;2024-01-11T03:27:17;258.58;;;15.77;;
49962;SDS011;36180;57.678;11.910;2024-01-11T03:29:44;59.95;;;10.88;;
49962;SDS011;36180;57.678;11.910;2024-01-11T03:32:11;141.98;;;13.93;;
49962;SDS011;36180;57.678;11.910;2024-01-11T03:34:40;172.57;;;14.02;;
49962;SDS011;36180;57.678;11.910;2024-01-11T03:37:07;267.33;;;16.90;;
49962;SDS011;36180;57.678;11.910;2024-01-11T03:39:34;106.63;;;14.90;;
49962;SDS011;36180;57.678;11.910;2024-01-11T03:42:01;121.35;;;14.80;;
49962;SDS011;36180;57.678;11.910;2024-01-11T03:44:30;168.70;;;16.75;;
49962;SDS011;36180;57.678;11.910;2024-01-11T03:46:57;189.93;;;18.35;;
49962;SDS011;36180;57.678;11.910;2024-01-11T03:49:24;245.98;;;21.20;;
49962;SDS011;36180;57.678;11.910;2024-01-11T03:51:52;196.90;;;22.20;;
49962;SDS011;36180;57.678;11.910;2024-01-11T03:54:19;208.20;;;21.73;;
49962;SDS011;36180;57.678;11.910;2024-01-11T03:56:46;100.93;;;18.92;;
49962;SDS011;36180;57.678;11.910;2024-01-11T03:59:13;125.43;;;21.30;;
49962;SDS011;36180;57.678;11.910;2024-01-11T04:01:40;173.27;;;22.75;;
49962;SDS011;36180;57.678;11.910;2024-01-11T04:04:07;227.48;;;24.35;;
49962;SDS011;36180;57.678;11.910;2024-01-11T04:06:34;122.07;;;23.83;;
49962;SDS011;36180;57.678;11.910;2024-01-11T04:09:03;209.93;;;24.40;;
49962;SDS011;36180;57.678;11.910;2024-01-11T04:11:30;182.88;;;26.10;;
49962;SDS011;36180;57.678;11.910;2024-01-11T04:13:57;335.23;;;27.55;;
49962;SDS011;36180;57.678;11.910;2024-01-11T04:16:24;379.42;;;27.85;;
49962;SDS011;36180;57.678;11.910;2024-01-11T04:18:51;313.05;;;26.98;;
49962;SDS011;36180;57.678;11.910;2024-01-11T04:21:21;396.20;;;28.33;;
49962;SDS011;36180;57.678;11.910;2024-01-11T04:23:49;351.23;;;28.95;;
49962;SDS011;36180;57.678;11.910;2024-01-11T04:26:17;272.25;;;27.55;;
49962;SDS011;36180;57.678;11.910;2024-01-11T04:28:44;293.23;;;26.17;;
49962;SDS011;36180;57.678;11.910;2024-01-11T04:31:11;235.27;;;25.45;;
49962;SDS011;36180;57.678;11.910;2024-01-11T04:33:39;180.70;;;27.35;;
49962;SDS011;36180;57.678;11.910;2024-01-11T04:36:07;326.42;;;28.17;;
49962;SDS011;36180;57.678;11.910;2024-01-11T04:38:34;203.05;;;26.17;;
49962;SDS011;36180;57.678;11.910;2024-01-11T04:41:01;223.43;;;28.92;;
49962;SDS011;36180;57.678;11.910;2024-01-11T04:43:30;337.25;;;29.95;;
49962;SDS011;36180;57.678;11.910;2024-01-11T04:45:57;304.27;;;29.20;;
49962;SDS011;36180;57.678;11.910;2024-01-11T04:48:24;182.55;;;27.60;;
49962;SDS011;36180;57.678;11.910;2024-01-11T04:50:51;161.27;;;28.45;;
49962;SDS011;36180;57.678;11.910;2024-01-11T04:53:18;129.85;;;27.38;;
49962;SDS011;36180;57.678;11.910;2024-01-11T04:55:45;132.10;;;27.00;;
49962;SDS011;36180;57.678;11.910;2024-01-11T04:58:12;119.05;;;27.83;;
49962;SDS011;36180;57.678;11.910;2024-01-11T05:00:40;93.05;;;26.33;;
49962;SDS011;36180;57.678;11.910;2024-01-11T05:03:07;107.68;;;26.25;;
49962;SDS011;36180;57.678;11.910;2024-01-11T05:05:34;144.15;;;27.63;;
49962;SDS011;36180;57.678;11.910;2024-01-11T05:08:01;136.20;;;26.75;;
49962;SDS011;36180;57.678;11.910;2024-01-11T05:10:28;146.40;;;27.83;;
49962;SDS011;36180;57.678;11.910;2024-01-11T05:12:55;98.53;;;26.98;;
49962;SDS011;36180;57.678;11.910;2024-01-11T05:15:22;127.65;;;27.50;;
49962;SDS011;36180;57.678;11.910;2024-01-11T05:17:51;122.85;;;30.02;;
49962;SDS011;36180;57.678;11.910;2024-01-11T05:20:18;106.03;;;28.98;;
49962;SDS011;36180;57.678;11.910;2024-01-11T05:22:45;93.47;;;28.33;;
49962;SDS011;36180;57.678;11.910;2024-01-11T05:25:12;93.97;;;28.08;;
49962;SDS011;36180;57.678;11.910;2024-01-11T05:27:39;77.53;;;25.92;;
49962;SDS011;36180;57.678;11.910;2024-01-11T05:30:06;75.43;;;26.63;;
49962;SDS011;36180;57.678;11.910;2024-01-11T05:32:35;69.68;;;25.60;;
49962;SDS011;36180;57.678;11.910;2024-01-11T05:35:03;66.15;;;24.35;;
49962;SDS011;36180;57.678;11.910;2024-01-11T05:37:30;70.50;;;26.73;;
49962;SDS011;36180;57.678;11.910;2024-01-11T05:39:57;64.82;;;26.55;;
49962;SDS011;36180;57.678;11.910;2024-01-11T05:42:25;62.70;;;27.20;;
49962;SDS011;36180;57.678;11.910;2024-01-11T05:44:52;60.47;;;26.08;;
49962;SDS011;36180;57.678;11.910;2024-01-11T05:47:18;62.25;;;26.90;;
49962;SDS011;36180;57.678;11.910;2024-01-11T05:49:46;61.38;;;26.05;;
49962;SDS011;36180;57.678;11.910;2024-01-11T05:52:15;56.05;;;25.05;;
49962;SDS011;36180;57.678;11.910;2024-01-11T05:54:42;61.10;;;27.23;;
49962;SDS011;36180;57.678;11.910;2024-01-11T05:57:10;55.78;;;27.33;;
49962;SDS011;36180;57.678;11.910;2024-01-11T05:59:37;59.08;;;26.20;;
49962;SDS011;36180;57.678;11.910;2024-01-11T06:02:04;60.13;;;26.80;;
49962;SDS011;36180;57.678;11.910;2024-01-11T06:04:31;55.05;;;25.25;;
49962;SDS011;36180;57.678;11.910;2024-01-11T06:06:58;54.88;;;24.60;;
49962;SDS011;36180;57.678;11.910;2024-01-11T06:09:27;52.60;;;25.63;;
49962;SDS011;36180;57.678;11.910;2024-01-11T06:11:54;54.28;;;26.13;;
49962;SDS011;36180;57.678;11.910;2024-01-11T06:14:21;51.42;;;25.13;;
49962;SDS011;36180;57.678;11.910;2024-01-11T06:16:48;57.38;;;27.98;;
49962;SDS011;36180;57.678;11.910;2024-01-11T06:19:15;58.28;;;25.98;;
49962;SDS011;36180;57.678;11.910;2024-01-11T06:21:42;55.05;;;26.77;;
49962;SDS011;36180;57.678;11.910;2024-01-11T06:24:09;50.97;;;24.85;;
49962;SDS011;36180;57.678;11.910;2024-01-11T06:26:37;53.03;;;24.05;;
49962;SDS011;36180;57.678;11.910;2024-01-11T06:29:05;48.40;;;25.08;;
49962;SDS011;36180;57.678;11.910;2024-01-11T06:31:32;52.35;;;24.73;;
49962;SDS011;36180;57.678;11.910;2024-01-11T06:33:59;47.97;;;23.42;;
49962;SDS011;36180;57.678;11.910;2024-01-11T06:36:26;51.65;;;24.10;;
49962;SDS011;36180;57.678;11.910;2024-01-11T06:38:53;43.95;;;22.45;;
49962;SDS011;36180;57.678;11.910;2024-01-11T06:41:20;42.17;;;22.45;;
49962;SDS011;36180;57.678;11.910;2024-01-11T06:43:48;47.88;;;23.17;;
49962;SDS011;36180;57.678;11.910;2024-01-11T06:46:19;50.33;;;23.73;;
49962;SDS011;36180;57.678;11.910;2024-01-11T06:48:46;50.88;;;23.90;;
49962;SDS011;36180;57.678;11.910;2024-01-11T06:51:14;46.75;;;25.17;;
49962;SDS011;36180;57.678;11.910;2024-01-11T06:53:41;45.47;;;23.60;;
49962;SDS011;36180;57.678;11.910;2024-01-11T06:56:15;45.38;;;22.75;;
49962;SDS011;36180;57.678;11.910;2024-01-11T06:58:42;40.83;;;21.58;;
49962;SDS011;36180;57.678;11.910;2024-01-11T07:01:11;40.75;;;22.40;;
49962;SDS011;36180;57.678;11.910;2024-01-11T07:03:38;44.30;;;21.60;;
49962;SDS011;36180;57.678;11.910;2024-01-11T07:06:06;48.17;;;24.20;;
49962;SDS011;36180;57.678;11.910;2024-01-11T07:08:33;47.22;;;25.20;;
49962;SDS011;36180;57.678;11.910;2024-01-11T07:11:00;46.28;;;23.80;;
49962;SDS011;36180;57.678;11.910;2024-01-11T07:13:28;48.67;;;22.92;;
49962;SDS011;36180;57.678;11.910;2024-01-11T07:15:54;44.80;;;22.25;;
49962;SDS011;36180;57.678;11.910;2024-01-11T07:18:24;43.67;;;22.52;;
49962;SDS011;36180;57.678;11.910;2024-01-11T07:20:51;45.88;;;24.30;;
49962;SDS011;36180;57.678;11.910;2024-01-11T07:23:19;49.17;;;23.90;;
49962;SDS011;36180;57.678;11.910;2024-01-11T07:25:46;44.35;;;23.13;;
49962;SDS011;36180;57.678;11.910;2024-01-11T07:28:13;48.08;;;23.35;;
49962;SDS011;36180;57.678;11.910;2024-01-11T07:30:40;54.08;;;23.42;;
49962;SDS011;36180;57.678;11.910;2024-01-11T07:33:07;48.83;;;23.33;;
49962;SDS011;36180;57.678;11.910;2024-01-11T07:35:35;37.15;;;21.00;;
49962;SDS011;36180;57.678;11.910;2024-01-11T07:38:03;41.92;;;22.55;;
49962;SDS011;36180;57.678;11.910;2024-01-11T07:40:30;43.40;;;23.42;;
49962;SDS011;36180;57.678;11.910;2024-01-11T07:42:57;49.78;;;22.60;;
49962;SDS011;36180;57.678;11.910;2024-01-11T07:45:24;44.97;;;22.77;;
49962;SDS011;36180;57.678;11.910;2024-01-11T07:47:51;44.13;;;22.42;;
49962;SDS011;36180;57.678;11.910;2024-01-11T07:50:18;38.03;;;21.00;;
49962;SDS011;36180;57.678;11.910;2024-01-11T07:52:46;31.77;;;18.95;;
49962;SDS011;36180;57.678;11.910;2024-01-11T07:55:13;42.50;;;20.67;;
49962;SDS011;36180;57.678;11.910;2024-01-11T07:57:40;35.03;;;19.70;;
49962;SDS011;36180;57.678;11.910;2024-01-11T08:00:08;36.08;;;19.00;;
49962;SDS011;36180;57.678;11.910;2024-01-11T08:02:38;40.22;;;18.40;;
49962;SDS011;36180;57.678;11.910;2024-01-11T08:05:06;29.65;;;17.20;;
49962;SDS011;36180;57.678;11.910;2024-01-11T08:07:34;28.25;;;17.35;;
49962;SDS011;36180;57.678;11.910;2024-01-11T08:10:03;32.95;;;20.05;;
49962;SDS011;36180;57.678;11.910;2024-01-11T08:12:31;38.90;;;22.17;;
49962;SDS011;36180;57.678;11.910;2024-01-11T08:14:58;42.80;;;25.02;;
49962;SDS011;36180;57.678;11.910;2024-01-11T08:17:25;46.28;;;25.52;;
49962;SDS011;36180;57.678;11.910;2024-01-11T08:19:52;44.85;;;24.67;;
49962;SDS011;36180;57.678;11.910;2024-01-11T08:22:20;43.35;;;25.98;;
49962;SDS011;36180;57.678;11.910;2024-01-11T08:24:47;45.05;;;25.52;;
49962;SDS011;36180;57.678;11.910;2024-01-11T08:27:16;44.45;;;24.88;;
49962;SDS011;36180;57.678;11.910;2024-01-11T08:29:43;35.08;;;21.15;;
49962;SDS011;36180;57.678;11.910;2024-01-11T08:32:12;36.30;;;20.95;;
49962;SDS011;36180;57.678;11.910;2024-01-11T08:34:39;40.85;;;20.02;;
49962;SDS011;36180;57.678;11.910;2024-01-11T08:37:06;35.05;;;20.45;;
49962;SDS011;36180;57.678;11.910;2024-01-11T08:39:32;42.55;;;20.95;;
49962;SDS011;36180;57.678;11.910;2024-01-11T08:42:00;36.42;;;19.25;;
49962;SDS011;36180;57.678;11.910;2024-01-11T08:44:28;37.63;;;19.77;;
49962;SDS011;36180;57.678;11.910;2024-01-11T08:46:55;37.63;;;21.25;;
49962;SDS011;36180;57.678;11.910;2024-01-11T08:49:24;39.67;;;20.00;;
49962;SDS011;36180;57.678;11.910;2024-01-11T08:51:51;36.42;;;19.60;;
49962;SDS011;36180;57.678;11.910;2024-01-11T08:54:18;33.00;;;19.73;;
49962;SDS011;36180;57.678;11.910;2024-01-11T08:56:46;39.40;;;19.80;;
49962;SDS011;36180;57.678;11.910;2024-01-11T08:59:13;31.48;;;17.23;;
49962;SDS011;36180;57.678;11.910;2024-01-11T09:01:41;32.15;;;17.65;;
49962;SDS011;36180;57.678;11.910;2024-01-11T09:04:08;33.90;;;16.92;;
49962;SDS011;36180;57.678;11.910;2024-01-11T09:06:35;26.63;;;16.42;;
49962;SDS011;36180;57.678;11.910;2024-01-11T09:09:02;25.80;;;17.20;;
49962;SDS011;36180;57.678;11.910;2024-01-11T09:11:35;28.35;;;16.77;;
49962;SDS011;36180;57.678;11.910;2024-01-11T09:14:02;35.85;;;17.48;;
49962;SDS011;36180;57.678;11.910;2024-01-11T09:16:29;26.15;;;16.00;;
49962;SDS011;36180;57.678;11.910;2024-01-11T09:18:57;31.52;;;16.10;;
49962;SDS011;36180;57.678;11.910;2024-01-11T09:21:25;24.83;;;14.48;;
49962;SDS011;36180;57.678;11.910;2024-01-11T09:23:52;22.05;;;13.68;;
49962;SDS011;36180;57.678;11.910;2024-01-11T09:26:19;30.88;;;15.63;;
49962;SDS011;36180;57.678;11.910;2024-01-11T09:28:47;21.33;;;14.10;;
49962;SDS011;36180;57.678;11.910;2024-01-11T09:31:14;23.38;;;14.70;;
49962;SDS011;36180;57.678;11.910;2024-01-11T09:33:41;23.75;;;14.40;;
49962;SDS011;36180;57.678;11.910;2024-01-11T09:36:12;25.52;;;14.82;;
49962;SDS011;36180;57.678;11.910;2024-01-11T09:38:40;25.38;;;14.38;;
49962;SDS011;36180;57.678;11.910;2024-01-11T09:41:07;22.42;;;13.43;;
49962;SDS011;36180;57.678;11.910;2024-01-11T09:43:35;27.42;;;14.27;;
49962;SDS011;36180;57.678;11.910;2024-01-11T09:46:03;23.30;;;13.82;;
49962;SDS011;36180;57.678;11.910;2024-01-11T09:48:32;20.98;;;12.30;;
49962;SDS011;36180;57.678;11.910;2024-01-11T09:51:00;19.30;;;12.15;;
49962;SDS011;36180;57.678;11.910;2024-01-11T09:53:29;25.27;;;13.75;;
49962;SDS011;36180;57.678;11.910;2024-01-11T09:55:59;26.35;;;13.93;;
49962;SDS011;36180;57.678;11.910;2024-01-11T09:58:26;25.95;;;13.55;;
49962;SDS011;36180;57.678;11.910;2024-01-11T10:00:54;26.65;;;13.32;;
49962;SDS011;36180;57.678;11.910;2024-01-11T10:03:24;23.42;;;14.40;;
49962;SDS011;36180;57.678;11.910;2024-01-11T10:05:52;22.42;;;12.55;;
49962;SDS011;36180;57.678;11.910;2024-01-11T10:08:22;20.52;;;11.13;;
49962;SDS011;36180;57.678;11.910;2024-01-11T10:10:51;18.23;;;10.93;;
49962;SDS011;36180;57.678;11.910;2024-01-11T10:13:19;18.27;;;12.43;;
49962;SDS011;36180;57.678;11.910;2024-01-11T10:15:53;17.95;;;11.38;;
49962;SDS011;36180;57.678;11.910;2024-01-11T10:18:34;18.95;;;11.30;;
49962;SDS011;36180;57.678;11.910;2024-01-11T10:21:02;17.77;;;11.55;;
49962;SDS011;36180;57.678;11.910;2024-01-11T10:23:32;18.73;;;10.57;;
49962;SDS011;36180;57.678;11.910;2024-01-11T10:26:01;17.77;;;10.25;;
49962;SDS011;36180;57.678;11.910;2024-01-11T10:28:28;17.60;;;11.25;;
49962;SDS011;36180;57.678;11.910;2024-01-11T10:30:56;17.42;;;10.57;;
49962;SDS011;36180;57.678;11.910;2024-01-11T10:33:23;17.77;;;9.98;;
49962;SDS011;36180;57.678;11.910;2024-01-11T10:35:50;17.80;;;10.75;;
49962;SDS011;36180;57.678;11.910;2024-01-11T10:38:17;15.88;;;9.93;;
49962;SDS011;36180;57.678;11.910;2024-01-11T10:40:44;17.33;;;10.18;;
49962;SDS011;36180;57.678;11.910;2024-01-11T10:43:15;20.05;;;11.63;;
49962;SDS011;36180;57.678;11.910;2024-01-11T10:45:46;17.67;;;10.65;;
49962;SDS011;36180;57.678;11.910;2024-01-11T10:48:19;16.17;;;9.90;;
49962;SDS011;36180;57.678;11.910;2024-01-11T10:50:49;15.68;;;10.07;;
49962;SDS011;36180;57.678;11.910;2024-01-11T10:55:52;16.80;;;9.80;;
49962;SDS011;36180;57.678;11.910;2024-01-11T10:58:22;21.92;;;10.25;;
49962;SDS011;36180;57.678;11.910;2024-01-11T11:00:51;19.15;;;10.48;;
49962;SDS011;36180;57.678;11.910;2024-01-11T11:03:20;18.77;;;10.10;;
49962;SDS011;36180;57.678;11.910;2024-01-11T11:05:50;18.30;;;11.40;;
49962;SDS011;36180;57.678;11.910;2024-01-11T11:08:20;17.70;;;10.48;;
49962;SDS011;36180;57.678;11.910;2024-01-11T11:10:50;15.32;;;9.30;;
49962;SDS011;36180;57.678;11.910;2024-01-11T11:13:18;16.85;;;9.80;;
49962;SDS011;36180;57.678;11.910;2024-01-11T11:15:46;13.43;;;8.82;;
49962;SDS011;36180;57.678;11.910;2024-01-11T11:18:15;13.88;;;8.00;;
49962;SDS011;36180;57.678;11.910;2024-01-11T11:20:43;12.98;;;8.23;;
49962;SDS011;36180;57.678;11.910;2024-01-11T11:23:11;15.50;;;9.02;;
49962;SDS011;36180;57.678;11.910;2024-01-11T11:25:40;16.23;;;9.60;;
49962;SDS011;36180;57.678;11.910;2024-01-11T11:28:07;16.13;;;10.07;;
49962;SDS011;36180;57.678;11.910;2024-01-11T11:30:36;13.20;;;8.70;;
49962;SDS011;36180;57.678;11.910;2024-01-11T11:33:09;13.75;;;8.82;;
49962;SDS011;36180;57.678;11.910;2024-01-11T11:35:36;12.07;;;8.20;;
49962;SDS011;36180;57.678;11.910;2024-01-11T11:38:04;13.27;;;7.85;;
49962;SDS011;36180;57.678;11.910;2024-01-11T11:40:32;14.77;;;7.95;;
49962;SDS011;36180;57.678;11.910;2024-01-11T11:43:04;12.63;;;8.20;;
49962;SDS011;36180;57.678;11.910;2024-01-11T11:45:31;11.35;;;8.05;;
49962;SDS011;36180;57.678;11.910;2024-01-11T11:47:58;14.73;;;8.48;;
49962;SDS011;36180;57.678;11.910;2024-01-11T11:50:27;12.05;;;7.22;;
49962;SDS011;36180;57.678;11.910;2024-01-11T11:52:57;14.60;;;8.25;;
49962;SDS011;36180;57.678;11.910;2024-01-11T11:55:24;11.32;;;7.57;;
49962;SDS011;36180;57.678;11.910;2024-01-11T11:57:51;12.77;;;7.93;;
49962;SDS011;36180;57.678;11.910;2024-01-11T12:00:19;13.95;;;6.95;;
49962;SDS011;36180;57.678;11.910;2024-01-11T12:02:46;10.85;;;6.32;;
49962;SDS011;36180;57.678;11.910;2024-01-11T12:05:14;9.20;;;6.70;;
49962;SDS011;36180;57.678;11.910;2024-01-11T12:07:43;9.32;;;5.90;;
49962;SDS011;36180;57.678;11.910;2024-01-11T12:10:10;7.40;;;5.38;;
49962;SDS011;36180;57.678;11.910;2024-01-11T12:12:38;7.97;;;5.82;;
49962;SDS011;36180;57.678;11.910;2024-01-11T12:15:05;11.38;;;6.07;;
49962;SDS011;36180;57.678;11.910;2024-01-11T12:17:34;9.07;;;5.43;;
49962;SDS011;36180;57.678;11.910;2024-01-11T12:20:01;7.88;;;5.57;;
49962;SDS011;36180;57.678;11.910;2024-01-11T12:22:28;7.85;;;4.93;;
49962;SDS011;36180;57.678;11.910;2024-01-11T12:24:57;9.07;;;5.22;;
49962;SDS011;36180;57.678;11.910;2024-01-11T12:27:24;9.15;;;5.00;;
49962;SDS011;36180;57.678;11.910;2024-01-11T12:29:52;8.50;;;5.10;;
49962;SDS011;36180;57.678;11.910;2024-01-11T12:32:19;8.02;;;4.68;;
49962;SDS011;36180;57.678;11.910;2024-01-11T12:34:46;7.47;;;3.90;;
49962;SDS011;36180;57.678;11.910;2024-01-11T12:37:14;7.53;;;3.50;;
49962;SDS011;36180;57.678;11.910;2024-01-11T12:39:41;7.30;;;4.75;;
49962;SDS011;36180;57.678;11.910;2024-01-11T12:42:10;7.82;;;4.38;;
49962;SDS011;36180;57.678;11.910;2024-01-11T12:44:37;6.45;;;4.00;;
49962;SDS011;36180;57.678;11.910;2024-01-11T12:47:05;6.60;;;4.13;;
49962;SDS011;36180;57.678;11.910;2024-01-11T12:49:34;7.30;;;3.95;;
49962;SDS011;36180;57.678;11.910;2024-01-11T12:52:01;6.43;;;4.13;;
49962;SDS011;36180;57.678;11.910;2024-01-11T12:54:28;6.40;;;3.95;;
49962;SDS011;36180;57.678;11.910;2024-01-11T12:56:59;5.88;;;4.28;;
49962;SDS011;36180;57.678;11.910;2024-01-11T12:59:28;5.50;;;3.92;;
49962;SDS011;36180;57.678;11.910;2024-01-11T13:01:55;6.53;;;3.97;;
49962;SDS011;36180;57.678;11.910;2024-01-11T13:04:24;6.53;;;3.30;;
49962;SDS011;36180;57.678;11.910;2024-01-11T13:06:51;5.45;;;3.70;;
49962;SDS011;36180;57.678;11.910;2024-01-11T13:09:18;7.53;;;3.55;;
49962;SDS011;36180;57.678;11.910;2024-01-11T13:11:45;5.47;;;3.30;;
49962;SDS011;36180;57.678;11.910;2024-01-11T13:14:14;6.47;;;3.15;;
49962;SDS011;36180;57.678;11.910;2024-01-11T13:16:45;3.80;;;2.83;;
49962;SDS011;36180;57.678;11.910;2024-01-11T13:19:14;4.72;;;3.38;;
49962;SDS011;36180;57.678;11.910;2024-01-11T13:21:41;3.47;;;3.00;;
49962;SDS011;36180;57.678;11.910;2024-01-11T13:24:07;4.75;;;2.92;;
49962;SDS011;36180;57.678;11.910;2024-01-11T13:26:35;6.30;;;3.50;;
49962;SDS011;36180;57.678;11.910;2024-01-11T13:29:02;5.07;;;3.30;;
49962;SDS011;36180;57.678;11.910;2024-01-11T13:31:30;5.50;;;3.78;;
49962;SDS011;36180;57.678;11.910;2024-01-11T13:33:59;6.47;;;3.33;;
49962;SDS011;36180;57.678;11.910;2024-01-11T13:36:26;6.38;;;3.70;;
49962;SDS011;36180;57.678;11.910;2024-01-11T13:38:54;5.50;;;3.30;;
49962;SDS011;36180;57.678;11.910;2024-01-11T13:41:21;6.75;;;3.40;;
49962;SDS011;36180;57.678;11.910;2024-01-11T13:43:48;5.57;;;3.00;;
49962;SDS011;36180;57.678;11.910;2024-01-11T13:46:15;4.18;;;3.28;;
49962;SDS011;36180;57.678;11.910;2024-01-11T13:48:45;6.50;;;3.38;;
49962;SDS011;36180;57.678;11.910;2024-01-11T13:51:13;5.45;;;3.65;;
49962;SDS011;36180;57.678;11.910;2024-01-11T13:53:40;6.40;;;3.45;;
49962;SDS011;36180;57.678;11.910;2024-01-11T13:56:07;9.88;;;4.15;;
49962;SDS011;36180;57.678;11.910;2024-01-11T13:58:34;7.18;;;3.50;;
49962;SDS011;36180;57.678;11.910;2024-01-11T14:01:02;6.68;;;3.38;;
49962;SDS011;36180;57.678;11.910;2024-01-11T14:03:29;17.67;;;10.65;;
49962;SDS011;36180;57.678;11.910;2024-01-11T14:05:56;5.85;;;3.63;;
49962;SDS011;36180;57.678;11.910;2024-01-11T14:08:24;6.38;;;3.55;;
49962;SDS011;36180;57.678;11.910;2024-01-11T14:10:51;5.57;;;3.67;;
49962;SDS011;36180;57.678;11.910;2024-01-11T14:13:19;5.05;;;3.30;;
49962;SDS011;36180;57.678;11.910;2024-01-11T14:15:46;7.53;;;3.85;;
49962;SDS011;36180;57.678;11.910;2024-01-11T14:18:16;6.75;;;3.67;;